Weather at John Glenn Columbus International Airport

Public forecast

Using degrees Fahrenheit for public forecast. Weather courtesy of forecast.io.

Current aviation weather report (METAR) for John Glenn Columbus International Airport

2024/07/18 17:51 (retrieved 36 minutes ago)

KCMH 181751Z 01007KT 10SM FEW044 BKN060 BKN070 BKN250 26/15 A3006 RMK AO2 SLP173 T02610150 10267 20178 58004

Aviation forecast (TAF) for John Glenn Columbus International Airport

2024/07/18 18:22 (retrieved 5 minutes ago)

TAF KCMH 181720Z 1818/1918 36010KT P6SM SCT040 FM190100 03005KT P6SM SKC FM191500 06006KT P6SM SKC